createdAt,value
2022-10-15T01:01:00.052Z,41.57
2022-10-15T01:06:04.670Z,45.53
2022-10-15T01:11:16.974Z,44.17
2022-10-15T01:16:45.864Z,43.63
2022-10-15T01:21:56.534Z,41.30
2022-10-15T01:27:28.262Z,42.63
2022-10-15T01:32:39.193Z,40.60
2022-10-15T01:37:53.672Z,40.53
2022-10-15T01:43:12.416Z,37.50
2022-10-15T01:48:17.873Z,37.73
2022-10-15T01:53:27.170Z,39.93
2022-10-15T01:58:31.622Z,37.43
2022-10-15T02:03:48.476Z,38.37
2022-10-15T02:08:58.600Z,35.43
2022-10-15T02:14:09.683Z,35.23
2022-10-15T02:19:22.264Z,42.73
2022-10-15T02:24:29.344Z,31.73
2022-10-15T02:29:36.273Z,32.13
2022-10-15T02:34:40.185Z,30.77
2022-10-15T02:39:44.425Z,28.67
2022-10-15T02:44:47.642Z,27.73
2022-10-15T02:49:50.972Z,27.17
2022-10-15T02:54:54.155Z,27.47
2022-10-15T02:59:57.300Z,30.07
2022-10-15T03:05:00.540Z,29.57
2022-10-15T03:10:04.008Z,31.70
2022-10-15T03:15:08.143Z,30.70
2022-10-15T03:20:11.434Z,30.33
2022-10-15T03:25:14.865Z,32.57
2022-10-15T03:30:18.122Z,32.23
2022-10-15T03:35:21.372Z,33.43
2022-10-15T03:40:24.490Z,34.60
2022-10-15T03:45:27.922Z,36.50
2022-10-15T03:50:31.166Z,35.43
2022-10-15T03:55:34.223Z,35.37
2022-10-15T04:00:37.603Z,36.80
2022-10-15T04:05:40.906Z,38.70
2022-10-15T04:10:44.207Z,38.97
2022-10-15T04:15:47.466Z,34.27
2022-10-15T04:20:50.682Z,36.97
2022-10-15T04:25:54.115Z,35.53
2022-10-15T04:30:58.874Z,37.07
2022-10-15T04:36:08.564Z,36.90
2022-10-15T04:41:13.324Z,38.17
2022-10-15T04:46:16.635Z,38.13
2022-10-15T04:51:21.892Z,36.60
2022-10-15T04:56:25.606Z,37.53
2022-10-15T05:01:28.946Z,38.27
2022-10-15T05:06:34.123Z,35.20
2022-10-15T05:11:41.686Z,37.10
2022-10-15T05:16:44.652Z,36.17
2022-10-15T05:26:55.886Z,36.77
2022-10-15T05:31:59.327Z,36.37
2022-10-15T05:37:02.574Z,35.57
2022-10-15T05:42:06.085Z,37.00
2022-10-15T05:47:12.163Z,34.40
2022-10-15T05:52:15.260Z,36.07
2022-10-15T05:57:18.906Z,36.97
2022-10-15T06:02:22.543Z,37.40
2022-10-15T06:07:26.326Z,41.13
2022-10-15T06:12:29.576Z,37.83
2022-10-15T06:17:32.967Z,38.77
2022-10-15T06:27:40.716Z,40.77
2022-10-15T06:32:54.365Z,42.53
2022-10-15T06:38:03.059Z,42.40
2022-10-15T06:43:11.036Z,40.47
2022-10-15T06:48:14.396Z,42.17
2022-10-15T06:53:17.717Z,45.63
2022-10-15T06:58:20.866Z,43.20
2022-10-15T07:03:23.954Z,42.43
2022-10-15T07:08:27.328Z,39.60
2022-10-15T07:13:35.556Z,40.10
2022-10-15T07:18:42.786Z,38.67
2022-10-15T07:23:46.296Z,37.57
2022-10-15T07:28:49.791Z,38.53
2022-10-15T07:33:52.738Z,38.17
2022-10-15T07:38:56.053Z,38.20
2022-10-15T07:43:59.275Z,39.57
2022-10-15T07:49:02.626Z,38.70
2022-10-15T07:54:06.066Z,36.37
2022-10-15T07:59:09.426Z,37.43
2022-10-15T08:04:12.909Z,36.10
2022-10-15T08:09:17.198Z,36.27
2022-10-15T08:14:20.700Z,35.07
2022-10-15T08:19:23.988Z,34.73
2022-10-15T08:24:27.558Z,31.87
2022-10-15T08:29:30.697Z,30.83
2022-10-15T08:34:33.645Z,31.07
2022-10-15T08:39:36.859Z,29.83
2022-10-15T08:44:56.717Z,28.83
2022-10-15T08:50:02.876Z,28.63
2022-10-15T08:55:07.055Z,27.30
2022-10-15T09:00:19.164Z,25.97
2022-10-15T09:05:28.856Z,26.27
2022-10-15T09:10:46.759Z,24.67
2022-10-15T09:15:54.946Z,23.13
2022-10-15T09:21:00.027Z,24.83
2022-10-15T09:26:32.733Z,23.10
2022-10-15T09:32:11.507Z,23.20
2022-10-15T09:37:42.897Z,22.87
2022-10-15T09:42:47.393Z,21.90
2022-10-15T09:47:51.696Z,22.00
2022-10-15T09:53:28.283Z,20.90
2022-10-15T09:58:40.457Z,21.30
2022-10-15T10:03:43.827Z,24.20
2022-10-15T10:09:01.635Z,23.87
2022-10-15T10:14:05.427Z,22.37
2022-10-15T10:19:16.197Z,24.17
2022-10-15T10:24:30.859Z,25.20
2022-10-15T10:29:39.978Z,26.20
2022-10-15T10:34:48.691Z,25.60
2022-10-15T10:39:59.405Z,25.80
2022-10-15T10:45:22.257Z,27.07
2022-10-15T10:50:35.937Z,26.33
2022-10-15T10:55:41.416Z,26.13
2022-10-15T11:00:50.794Z,28.30
2022-10-15T11:06:07.656Z,27.20
2022-10-15T11:11:32.209Z,27.17
2022-10-15T11:16:46.533Z,26.87
2022-10-15T11:22:10.844Z,25.50
2022-10-15T11:27:38.897Z,27.23
2022-10-15T11:33:07.080Z,25.53
2022-10-15T11:38:31.297Z,26.10
2022-10-15T11:44:02.035Z,27.40
2022-10-15T11:49:17.428Z,27.47
2022-10-15T11:54:34.458Z,26.30
2022-10-15T12:00:40.090Z,27.93
2022-10-15T12:05:55.525Z,26.43
2022-10-15T12:11:25.226Z,27.97
2022-10-15T12:16:28.667Z,29.53
2022-10-15T12:21:40.360Z,29.47
2022-10-15T12:26:45.694Z,28.80
2022-10-15T12:31:56.889Z,29.40
2022-10-15T12:37:06.242Z,28.03
2022-10-15T12:42:30.331Z,27.93
2022-10-15T12:47:54.530Z,27.37
2022-10-15T12:53:05.395Z,27.57
2022-10-15T12:58:37.485Z,28.53
2022-10-15T13:03:53.345Z,26.73
2022-10-15T13:09:11.623Z,27.70
2022-10-15T13:14:37.314Z,27.57
2022-10-15T13:19:47.086Z,27.40
2022-10-15T13:24:50.587Z,26.50
2022-10-15T13:29:56.056Z,25.60
2022-10-15T13:35:20.108Z,24.63
2022-10-15T13:40:26.411Z,24.13
2022-10-15T13:45:30.332Z,24.63
2022-10-15T13:50:37.563Z,22.95
2022-10-15T13:55:49.034Z,24.85
2022-10-15T14:01:21.626Z,24.13
2022-10-15T14:06:28.956Z,24.40
2022-10-15T14:11:38.248Z,22.33
2022-10-15T14:16:48.873Z,22.50
2022-10-15T14:21:55.414Z,22.67
2022-10-15T14:27:08.286Z,22.40
2022-10-15T14:32:27.336Z,23.95
2022-10-15T14:37:37.444Z,22.85
2022-10-15T14:43:07.675Z,22.07
2022-10-15T14:48:21.124Z,20.45
2022-10-15T14:53:31.755Z,21.23
2022-10-15T14:58:35.872Z,21.92
2022-10-15T15:03:43.855Z,22.53
2022-10-15T15:08:47.666Z,22.83
2022-10-15T15:13:52.626Z,21.88
2022-10-15T15:18:57.729Z,22.10
2022-10-15T15:24:01.031Z,22.17
2022-10-15T15:29:10.121Z,23.47
2022-10-15T15:54:16.582Z,24.93
2022-10-15T15:59:20.083Z,24.40
2022-10-15T16:04:23.684Z,26.07
2022-10-15T16:09:28.214Z,23.47
2022-10-15T16:14:32.813Z,24.80
2022-10-15T16:19:35.954Z,23.87
2022-10-15T16:24:39.704Z,25.33
2022-10-15T16:29:44.216Z,24.70
2022-10-15T16:34:48.751Z,24.67
2022-10-15T16:39:52.815Z,27.07
2022-10-15T16:44:56.057Z,27.47
2022-10-15T16:49:59.462Z,25.07
2022-10-15T16:55:02.836Z,25.43
2022-10-15T17:00:06.774Z,25.13
2022-10-15T17:05:10.381Z,24.90
2022-10-15T17:10:14.915Z,23.80
2022-10-15T17:15:18.950Z,23.73
2022-10-15T17:20:22.501Z,22.70
2022-10-15T17:25:29.753Z,23.33
2022-10-15T17:30:38.223Z,24.40
2022-10-15T17:35:41.841Z,22.03
2022-10-15T17:40:45.636Z,23.83
2022-10-15T17:45:49.526Z,24.17
2022-10-15T17:50:53.393Z,22.43
2022-10-15T17:56:24.990Z,20.87
2022-10-15T18:01:45.898Z,21.37
2022-10-15T18:06:56.204Z,21.30
2022-10-15T18:12:01.108Z,21.60
2022-10-15T18:17:06.034Z,22.23
2022-10-15T18:28:44.933Z,24.10
2022-10-15T18:33:52.821Z,23.20
2022-10-15T18:38:58.265Z,24.13
2022-10-15T18:44:29.919Z,25.10
2022-10-15T18:49:34.343Z,24.67
2022-10-15T18:54:39.367Z,27.97
2022-10-15T18:59:43.176Z,23.70
2022-10-15T19:04:48.654Z,24.23
2022-10-15T19:09:52.693Z,25.70
2022-10-15T19:14:56.663Z,27.37
2022-10-15T19:20:00.040Z,27.23
2022-10-15T19:25:03.784Z,27.77
2022-10-15T19:30:09.470Z,30.50
2022-10-15T19:35:14.253Z,27.70
2022-10-15T19:40:17.621Z,30.03
2022-10-15T19:45:22.303Z,29.30
2022-10-15T19:50:26.417Z,29.20
2022-10-15T19:55:29.726Z,29.73
2022-10-15T20:00:34.513Z,31.07
2022-10-15T20:05:43.853Z,30.37
2022-10-15T20:10:52.143Z,29.83
2022-10-15T20:15:55.599Z,31.07
2022-10-15T20:20:59.393Z,30.77
2022-10-15T20:26:06.933Z,31.03
2022-10-15T20:31:20.925Z,30.17
2022-10-15T20:36:27.166Z,31.50
2022-10-15T20:41:30.315Z,36.30
2022-10-15T20:47:00.284Z,31.13
2022-10-15T20:52:05.304Z,27.43
2022-10-15T20:57:10.435Z,26.20
2022-10-15T21:02:13.804Z,32.27
2022-10-15T21:07:17.430Z,32.70
2022-10-15T21:12:20.796Z,31.77
2022-10-15T21:17:24.795Z,36.77
2022-10-15T21:22:27.953Z,35.70
2022-10-15T21:27:30.891Z,34.90
2022-10-15T21:32:34.021Z,31.40
2022-10-15T21:37:39.364Z,33.47
2022-10-15T21:42:43.281Z,36.63
2022-10-15T21:47:47.201Z,34.43
2022-10-15T21:52:50.421Z,32.17
2022-10-15T21:57:54.066Z,30.50
2022-10-15T22:02:58.233Z,31.47
2022-10-15T22:08:01.565Z,30.17
2022-10-15T22:13:04.983Z,30.03
2022-10-15T22:18:08.712Z,31.60
2022-10-15T22:23:11.712Z,30.13
2022-10-15T22:28:14.732Z,29.10
2022-10-15T22:33:18.201Z,30.93
2022-10-15T22:38:21.311Z,29.23
2022-10-15T22:43:25.534Z,29.40
2022-10-15T22:48:28.923Z,29.27
2022-10-15T22:53:32.631Z,29.43
2022-10-15T22:58:36.711Z,31.50
2022-10-15T23:03:42.339Z,30.03
2022-10-15T23:08:47.931Z,31.70
2022-10-15T23:14:12.392Z,32.20
2022-10-15T23:19:18.854Z,31.23
2022-10-15T23:24:24.106Z,30.50
2022-10-15T23:29:28.203Z,30.23
2022-10-15T23:34:31.352Z,31.83
2022-10-15T23:39:34.593Z,31.30
2022-10-15T23:49:42.173Z,30.73
2022-10-15T23:54:45.363Z,30.73
2022-10-15T23:59:48.623Z,30.10
